createdAt,value
2018-04-25T00:02:16.568Z,99714
2018-04-25T00:04:47.113Z,99702
2018-04-25T00:07:17.432Z,99691
2018-04-25T00:09:47.453Z,99680
2018-04-25T00:12:18.494Z,99687
2018-04-25T00:14:48.527Z,99692
2018-04-25T00:17:18.925Z,99696
2018-04-25T00:19:49.441Z,99701
2018-04-25T00:22:19.732Z,99702
2018-04-25T00:24:50.459Z,99715
2018-04-25T00:27:20.922Z,99723
2018-04-25T00:29:51.455Z,99737
2018-04-25T00:32:21.392Z,99738
2018-04-25T00:34:52.038Z,99734
2018-04-25T00:37:22.198Z,99733
2018-04-25T00:39:52.787Z,99741
2018-04-25T00:42:23.104Z,99741
2018-04-25T00:44:53.223Z,99737
2018-04-25T00:47:23.133Z,99739
2018-04-25T00:49:53.333Z,99738
2018-04-25T00:52:24.518Z,99733
2018-04-25T00:54:55.337Z,99732
2018-04-25T00:57:25.268Z,99738
2018-04-25T00:59:55.658Z,99744
2018-04-25T01:02:26.389Z,99744
2018-04-25T01:04:56.436Z,99738
2018-04-25T01:07:27.478Z,99734
2018-04-25T01:09:57.907Z,99727
2018-04-25T01:12:27.818Z,99733
2018-04-25T01:14:59.027Z,99732
2018-04-25T01:17:29.289Z,99727
2018-04-25T01:20:00.200Z,99731
2018-04-25T01:22:31.043Z,99738
2018-04-25T01:25:01.846Z,99736
2018-04-25T01:27:41.880Z,99727
2018-04-25T01:30:13.275Z,99719
2018-04-25T01:32:44.168Z,99720
2018-04-25T01:35:14.820Z,99721
2018-04-25T01:37:51.474Z,99725
2018-04-25T01:40:21.417Z,99730
2018-04-25T01:43:08.068Z,99726
2018-04-25T01:45:54.376Z,99720
2018-04-25T01:48:35.614Z,99715
2018-04-25T01:51:05.766Z,99713
2018-04-25T01:53:48.381Z,99707
2018-04-25T01:56:30.282Z,99708
2018-04-25T01:59:12.391Z,99711
2018-04-25T02:01:42.387Z,99711
2018-04-25T02:04:13.311Z,99712
2018-04-25T02:06:43.594Z,99705
2018-04-25T02:09:14.269Z,99696
2018-04-25T02:11:44.837Z,99688
2018-04-25T02:14:15.363Z,99673
2018-04-25T02:16:45.785Z,99671
2018-04-25T02:19:17.169Z,99663
2018-04-25T02:21:47.739Z,99658
2018-04-25T02:24:18.796Z,99657
2018-04-25T02:26:49.229Z,99657
2018-04-25T02:29:19.317Z,99656
2018-04-25T02:31:50.063Z,99649
2018-04-25T02:34:20.794Z,99646
2018-04-25T02:36:52.001Z,99644
2018-04-25T02:39:23.033Z,99642
2018-04-25T02:41:54.068Z,99656
2018-04-25T02:44:24.912Z,99662
2018-04-25T02:46:55.705Z,99670
2018-04-25T02:49:27.494Z,99678
2018-04-25T02:51:57.914Z,99683
2018-04-25T02:54:28.452Z,99694
2018-04-25T02:56:59.696Z,99693
2018-04-25T02:59:29.920Z,99682
2018-04-25T03:02:01.165Z,99681
2018-04-25T03:04:31.777Z,99686
2018-04-25T03:07:02.218Z,99691
2018-04-25T03:09:32.859Z,99701
2018-04-25T03:12:04.037Z,99693
2018-04-25T03:14:34.906Z,99689
2018-04-25T03:17:05.568Z,99690
2018-04-25T03:19:37.260Z,99693
2018-04-25T03:22:07.892Z,99690
2018-04-25T03:24:38.256Z,99693
2018-04-25T03:27:08.626Z,99690
2018-04-25T03:29:39.238Z,99689
2018-04-25T03:32:09.844Z,99692
2018-04-25T03:34:40.830Z,99693
2018-04-25T03:37:10.733Z,99691
2018-04-25T03:39:41.719Z,99691
2018-04-25T03:42:11.998Z,99698
2018-04-25T03:44:42.619Z,99701
2018-04-25T03:47:13.170Z,99697
2018-04-25T03:49:43.993Z,99708
2018-04-25T03:52:14.395Z,99702
2018-04-25T03:54:44.950Z,99709
2018-04-25T03:57:15.793Z,99712
2018-04-25T03:59:46.521Z,99719
2018-04-25T04:02:17.129Z,99715
2018-04-25T04:04:48.075Z,99719
2018-04-25T04:07:18.791Z,99720
2018-04-25T04:09:49.517Z,99716
2018-04-25T04:12:20.229Z,99718
2018-04-25T04:14:51.223Z,99713
2018-04-25T04:17:21.732Z,99715
2018-04-25T04:19:52.401Z,99715
2018-04-25T04:22:25.351Z,99717
2018-04-25T04:24:55.669Z,99723
2018-04-25T04:27:26.558Z,99722
2018-04-25T04:29:57.229Z,99722
2018-04-25T04:32:28.093Z,99726
2018-04-25T04:34:58.972Z,99733
2018-04-25T04:37:29.273Z,99725
2018-04-25T04:39:59.667Z,99734
2018-04-25T04:42:30.112Z,99730
2018-04-25T04:45:00.659Z,99738
2018-04-25T04:47:31.237Z,99736
2018-04-25T04:50:01.313Z,99739
2018-04-25T04:52:32.044Z,99744
2018-04-25T04:55:02.373Z,99744
2018-04-25T04:57:32.882Z,99744
2018-04-25T05:00:03.441Z,99753
2018-04-25T05:02:34.179Z,99754
2018-04-25T05:05:04.653Z,99748
2018-04-25T05:07:34.920Z,99746
2018-04-25T05:10:05.763Z,99745
2018-04-25T05:12:36.765Z,99744
2018-04-25T05:15:07.617Z,99743
2018-04-25T05:17:38.053Z,99741
2018-04-25T05:20:08.367Z,99744
2018-04-25T05:22:39.112Z,99746
2018-04-25T05:25:10.029Z,99741
2018-04-25T05:27:40.807Z,99744
2018-04-25T05:30:11.323Z,99742
2018-04-25T05:32:42.109Z,99744
2018-04-25T05:35:12.354Z,99739
2018-04-25T05:37:43.261Z,99738
2018-04-25T05:40:13.820Z,99733
2018-04-25T05:42:44.137Z,99735
2018-04-25T05:45:14.789Z,99726
2018-04-25T05:47:45.965Z,99723
2018-04-25T05:50:16.538Z,99719
2018-04-25T05:52:47.197Z,99719
2018-04-25T05:55:17.134Z,99719
2018-04-25T05:57:48.509Z,99718
2018-04-25T06:00:18.874Z,99714
2018-04-25T06:02:49.932Z,99711
2018-04-25T06:05:20.069Z,99715
2018-04-25T06:07:51.119Z,99718
2018-04-25T06:10:21.559Z,99715
2018-04-25T06:12:52.460Z,99716
2018-04-25T06:15:23.194Z,99711
2018-04-25T06:17:53.921Z,99714
2018-04-25T06:20:24.496Z,99709
2018-04-25T06:22:55.123Z,99711
2018-04-25T06:25:26.706Z,99714
2018-04-25T06:27:57.493Z,99710
2018-04-25T06:30:28.146Z,99710
2018-04-25T06:32:58.501Z,99720
2018-04-25T06:35:28.893Z,99718
2018-04-25T06:37:59.295Z,99716
2018-04-25T06:40:29.643Z,99712
2018-04-25T06:42:59.923Z,99710
2018-04-25T06:45:30.067Z,99701
2018-04-25T06:48:01.381Z,99701
2018-04-25T06:50:32.295Z,99707
2018-04-25T06:53:03.148Z,99709
2018-04-25T06:55:33.652Z,99705
2018-04-25T06:58:04.530Z,99707
2018-04-25T07:00:35.451Z,99704
2018-04-25T07:03:06.167Z,99709
2018-04-25T07:05:36.676Z,99706
2018-04-25T07:08:07.394Z,99709
2018-04-25T07:10:37.947Z,99702
2018-04-25T07:13:08.859Z,99695
2018-04-25T07:15:39.177Z,99707
2018-04-25T07:18:10.010Z,99709
2018-04-25T07:20:40.762Z,99712
2018-04-25T07:23:11.785Z,99711
2018-04-25T07:25:42.144Z,99709
2018-04-25T07:28:12.139Z,99707
2018-04-25T07:30:43.110Z,99707
2018-04-25T07:33:13.745Z,99704
2018-04-25T07:35:44.972Z,99704
2018-04-25T07:38:14.902Z,99702
2018-04-25T07:40:45.868Z,99702
2018-04-25T07:43:16.882Z,99703
2018-04-25T07:45:48.360Z,99697
2018-04-25T07:48:18.769Z,99707
2018-04-25T07:50:48.978Z,99701
2018-04-25T07:53:19.311Z,99706
2018-04-25T07:55:50.126Z,99703
2018-04-25T07:58:21.169Z,99698
2018-04-25T08:00:51.976Z,99703
2018-04-25T08:03:22.275Z,99696
2018-04-25T08:05:52.641Z,99700
2018-04-25T08:08:23.764Z,99710
2018-04-25T08:10:54.076Z,99697
2018-04-25T08:13:36.240Z,99694
2018-04-25T08:16:18.452Z,99698
2018-04-25T08:18:58.610Z,99698
2018-04-25T08:21:40.196Z,99690
2018-04-25T08:24:11.032Z,99695
2018-04-25T08:26:41.679Z,99690
2018-04-25T08:29:11.683Z,99685
2018-04-25T08:31:42.495Z,99682
2018-04-25T08:34:13.246Z,99680
2018-04-25T08:36:43.917Z,99680
2018-04-25T08:39:14.326Z,99679
2018-04-25T08:41:45.335Z,99677
2018-04-25T08:44:16.905Z,99677
2018-04-25T08:46:47.511Z,99678
2018-04-25T08:49:17.859Z,99676
2018-04-25T08:51:49.156Z,99678
2018-04-25T08:54:19.697Z,99681
2018-04-25T08:56:50.182Z,99679
2018-04-25T08:59:20.788Z,99680
2018-04-25T09:01:52.054Z,99666
2018-04-25T09:04:22.586Z,99661
2018-04-25T09:06:53.258Z,99654
2018-04-25T09:09:23.341Z,99659
2018-04-25T09:11:53.966Z,99655
2018-04-25T09:14:25.048Z,99649
2018-04-25T09:16:56.116Z,99640
2018-04-25T09:19:26.880Z,99634
2018-04-25T09:21:57.692Z,99637
2018-04-25T09:24:28.160Z,99629
2018-04-25T09:26:58.433Z,99625
2018-04-25T09:29:29.083Z,99624
2018-04-25T09:31:59.029Z,99619
2018-04-25T09:34:29.553Z,99621
2018-04-25T09:37:00.487Z,99619
2018-04-25T09:39:31.459Z,99617
2018-04-25T09:42:02.319Z,99614
2018-04-25T09:44:32.183Z,99612
2018-04-25T09:47:02.642Z,99606
2018-04-25T09:49:33.252Z,99605
2018-04-25T09:52:04.226Z,99602
2018-04-25T09:54:34.589Z,99600
2018-04-25T09:57:05.111Z,99593
2018-04-25T09:59:35.463Z,99600
2018-04-25T10:02:05.787Z,99596
2018-04-25T10:04:36.319Z,99588
2018-04-25T10:07:07.614Z,99580
2018-04-25T10:09:38.408Z,99580
2018-04-25T10:12:09.139Z,99581
2018-04-25T10:14:39.789Z,99568
2018-04-25T10:17:10.642Z,99563
2018-04-25T10:19:41.505Z,99560
2018-04-25T10:22:12.483Z,99556
2018-04-25T10:24:43.483Z,99554
2018-04-25T10:27:14.143Z,99551
2018-04-25T10:29:44.885Z,99546
2018-04-25T10:32:14.811Z,99534
2018-04-25T10:34:45.427Z,99522
2018-04-25T10:37:16.698Z,99521
2018-04-25T10:39:47.226Z,99521
2018-04-25T10:42:18.010Z,99521
2018-04-25T10:44:49.473Z,99515
2018-04-25T10:47:19.605Z,99515
2018-04-25T10:49:50.593Z,99512
2018-04-25T10:52:21.218Z,99515
2018-04-25T10:54:51.675Z,99508
2018-04-25T10:57:22.689Z,99502
2018-04-25T10:59:53.502Z,99512
2018-04-25T11:02:24.344Z,99506
2018-04-25T11:04:54.949Z,99500
2018-04-25T11:07:25.505Z,99500
2018-04-25T11:09:56.672Z,99497
2018-04-25T11:12:27.395Z,99494
2018-04-25T11:14:57.717Z,99487
2018-04-25T11:17:29.007Z,99474
2018-04-25T11:19:59.288Z,99475
2018-04-25T11:22:29.873Z,99465
2018-04-25T11:25:00.584Z,99468
2018-04-25T11:27:31.336Z,99466
2018-04-25T11:30:02.193Z,99456
2018-04-25T11:32:32.877Z,99454
2018-04-25T11:35:04.411Z,99456
2018-04-25T11:37:35.050Z,99455
2018-04-25T11:40:05.960Z,99448
2018-04-25T11:42:36.788Z,99450
2018-04-25T11:45:07.566Z,99448
2018-04-25T11:47:38.016Z,99441
2018-04-25T11:50:08.773Z,99445
2018-04-25T11:52:39.963Z,99443
2018-04-25T11:55:10.459Z,99435
2018-04-25T11:57:41.280Z,99433
2018-04-25T12:00:11.945Z,99431
2018-04-25T12:02:42.489Z,99420
2018-04-25T12:05:13.302Z,99415
2018-04-25T12:07:43.236Z,99418
2018-04-25T12:10:14.290Z,99421
2018-04-25T12:12:44.913Z,99415
2018-04-25T12:15:15.737Z,99411
2018-04-25T12:17:46.157Z,99407
2018-04-25T12:20:16.672Z,99406
2018-04-25T12:22:47.047Z,99420
2018-04-25T12:25:17.697Z,99409
2018-04-25T12:27:48.572Z,99396
2018-04-25T12:30:19.354Z,99398
2018-04-25T12:32:50.297Z,99400
2018-04-25T12:35:20.303Z,99396
2018-04-25T12:37:52.235Z,99391
2018-04-25T12:40:22.802Z,99391
2018-04-25T12:42:53.779Z,99392
2018-04-25T12:45:24.510Z,99381
2018-04-25T12:47:55.714Z,99380
2018-04-25T12:50:26.251Z,99377
2018-04-25T12:52:56.362Z,99379
2018-04-25T12:55:26.997Z,99375
2018-04-25T12:57:58.227Z,99375
2018-04-25T13:00:28.775Z,99380
2018-04-25T13:02:59.485Z,99381
2018-04-25T13:05:30.278Z,99380
2018-04-25T13:08:01.152Z,99381
2018-04-25T13:10:31.970Z,99379
2018-04-25T13:13:02.455Z,99381
2018-04-25T13:15:33.177Z,99375
2018-04-25T13:18:03.917Z,99376
2018-04-25T13:20:34.468Z,99366
2018-04-25T13:23:05.371Z,99361
2018-04-25T13:25:35.711Z,99367
2018-04-25T13:28:06.351Z,99361
2018-04-25T13:30:37.539Z,99360
2018-04-25T13:33:08.305Z,99351
2018-04-25T13:35:39.374Z,99358
2018-04-25T13:38:10.811Z,99359
2018-04-25T13:40:41.345Z,99360
2018-04-25T13:43:12.302Z,99352
2018-04-25T13:45:43.405Z,99351
2018-04-25T13:48:15.157Z,99353
2018-04-25T13:50:45.617Z,99354
2018-04-25T13:53:15.834Z,99352
2018-04-25T13:55:46.334Z,99354
2018-04-25T13:58:17.483Z,99353
2018-04-25T14:00:48.071Z,99350
2018-04-25T14:03:18.457Z,99351
2018-04-25T14:05:49.165Z,99354
2018-04-25T14:08:19.347Z,99355
2018-04-25T14:10:49.568Z,99351
2018-04-25T14:13:20.295Z,99345
2018-04-25T14:15:50.099Z,99345
2018-04-25T14:18:20.590Z,99342
2018-04-25T14:20:51.250Z,99346
2018-04-25T14:23:21.176Z,99343
2018-04-25T14:25:51.601Z,99346
2018-04-25T14:28:22.487Z,99344
2018-04-25T14:30:53.070Z,99343
2018-04-25T14:33:24.459Z,99350
2018-04-25T14:35:55.206Z,99348
2018-04-25T14:38:25.888Z,99342
2018-04-25T14:40:56.530Z,99339
2018-04-25T14:43:26.962Z,99335
2018-04-25T14:45:57.599Z,99342
2018-04-25T14:48:28.207Z,99342
2018-04-25T14:50:59.268Z,99339
2018-04-25T14:53:30.006Z,99343
2018-04-25T14:56:00.877Z,99340
2018-04-25T14:58:31.904Z,99338
2018-04-25T15:01:02.488Z,99335
2018-04-25T15:03:33.420Z,99327
2018-04-25T15:06:03.535Z,99331
2018-04-25T15:08:33.894Z,99322
2018-04-25T15:11:04.413Z,99329
2018-04-25T15:13:35.170Z,99330
2018-04-25T15:16:05.990Z,99330
2018-04-25T15:18:37.134Z,99330
2018-04-25T15:21:07.693Z,99329
2018-04-25T15:23:38.272Z,99324
2018-04-25T15:26:08.894Z,99326
2018-04-25T15:28:39.813Z,99322
2018-04-25T15:31:10.169Z,99322
2018-04-25T15:33:41.206Z,99320
2018-04-25T15:36:11.714Z,99322
2018-04-25T15:38:42.322Z,99317
2018-04-25T15:41:12.894Z,99314
2018-04-25T15:43:43.560Z,99312
2018-04-25T15:46:13.384Z,99308
2018-04-25T15:48:44.471Z,99309
2018-04-25T15:51:14.938Z,99305
2018-04-25T15:53:44.756Z,99308
2018-04-25T15:56:15.250Z,99312
2018-04-25T15:58:45.614Z,99309
2018-04-25T16:01:15.541Z,99309
2018-04-25T16:03:46.300Z,99307
2018-04-25T16:06:17.117Z,99309
2018-04-25T16:08:47.932Z,99311
2018-04-25T16:11:17.775Z,99317
2018-04-25T16:13:48.399Z,99322
2018-04-25T16:16:18.947Z,99317
2018-04-25T16:18:49.284Z,99315
2018-04-25T16:21:20.304Z,99316
2018-04-25T16:23:51.028Z,99318
2018-04-25T16:26:21.763Z,99322
2018-04-25T16:28:52.322Z,99318
2018-04-25T16:31:22.777Z,99314
2018-04-25T16:33:53.275Z,99320
2018-04-25T16:36:23.659Z,99315
2018-04-25T16:38:54.427Z,99316
2018-04-25T16:41:24.727Z,99316
2018-04-25T16:43:55.562Z,99318
2018-04-25T16:46:26.299Z,99319
2018-04-25T16:48:57.447Z,99318
2018-04-25T16:51:28.077Z,99325
2018-04-25T16:53:59.084Z,99328
2018-04-25T16:56:29.557Z,99330
2018-04-25T16:59:00.421Z,99334
2018-04-25T17:01:31.645Z,99332
2018-04-25T17:04:02.430Z,99338
2018-04-25T17:06:33.505Z,99340
2018-04-25T17:09:04.672Z,99343
2018-04-25T17:11:35.754Z,99348
2018-04-25T17:14:06.872Z,99347
2018-04-25T17:16:37.721Z,99354
2018-04-25T17:19:07.657Z,99356
2018-04-25T17:21:38.289Z,99358
2018-04-25T17:24:09.228Z,99361
2018-04-25T17:26:39.180Z,99364
2018-04-25T17:29:09.809Z,99367
2018-04-25T17:31:40.657Z,99372
2018-04-25T17:34:11.291Z,99373
2018-04-25T17:36:41.522Z,99364
2018-04-25T17:39:12.078Z,99371
2018-04-25T17:41:42.541Z,99370
2018-04-25T17:44:13.321Z,99375
2018-04-25T17:46:43.666Z,99380
2018-04-25T17:49:14.490Z,99382
2018-04-25T17:51:45.087Z,99387
2018-04-25T17:54:15.609Z,99386
2018-04-25T17:56:46.368Z,99386
2018-04-25T17:59:17.396Z,99390
2018-04-25T18:01:47.727Z,99392
2018-04-25T18:04:18.805Z,99395
2018-04-25T18:06:50.288Z,99403
2018-04-25T18:09:21.243Z,99406
2018-04-25T18:11:51.780Z,99406
2018-04-25T18:14:22.283Z,99417
2018-04-25T18:16:52.999Z,99418
2018-04-25T18:19:22.878Z,99415
2018-04-25T18:21:53.455Z,99430
2018-04-25T18:24:24.108Z,99439
2018-04-25T18:26:54.366Z,99447
2018-04-25T18:29:24.761Z,99450
2018-04-25T18:31:55.434Z,99452
2018-04-25T18:34:25.829Z,99456
2018-04-25T18:36:56.370Z,99455
2018-04-25T18:39:26.391Z,99467
2018-04-25T18:41:57.190Z,99472
2018-04-25T18:44:27.864Z,99471
2018-04-25T18:46:58.615Z,99472
2018-04-25T18:49:29.718Z,99473
2018-04-25T18:52:00.061Z,99479
2018-04-25T18:54:30.776Z,99479
2018-04-25T18:57:01.326Z,99482
2018-04-25T18:59:32.232Z,99484
2018-04-25T19:02:02.690Z,99478
2018-04-25T19:04:32.721Z,99482
2018-04-25T19:07:03.537Z,99486
2018-04-25T19:09:33.986Z,99488
2018-04-25T19:12:04.581Z,99486
2018-04-25T19:14:34.952Z,99488
2018-04-25T19:17:05.869Z,99488
2018-04-25T19:19:36.713Z,99486
2018-04-25T19:22:07.586Z,99493
2018-04-25T19:24:37.983Z,99493
2018-04-25T19:27:09.127Z,99491
2018-04-25T19:29:39.745Z,99489
2018-04-25T19:32:10.573Z,99485
2018-04-25T19:34:41.171Z,99481
2018-04-25T19:37:11.928Z,99483
2018-04-25T19:39:42.484Z,99489
2018-04-25T19:42:13.193Z,99493
2018-04-25T19:44:43.820Z,99494
2018-04-25T19:47:14.260Z,99500
2018-04-25T19:49:44.604Z,99496
2018-04-25T19:52:14.935Z,99493
2018-04-25T19:54:45.778Z,99504
2018-04-25T19:57:16.123Z,99502
2018-04-25T19:59:46.122Z,99503
2018-04-25T20:02:16.740Z,99497
2018-04-25T20:04:47.559Z,99501
2018-04-25T20:07:18.449Z,99507
2018-04-25T20:09:48.855Z,99508
2018-04-25T20:12:19.267Z,99509
2018-04-25T20:14:49.878Z,99510
2018-04-25T20:17:20.241Z,99509
2018-04-25T20:19:50.765Z,99509
2018-04-25T20:22:21.194Z,99506
2018-04-25T20:24:51.825Z,99505
2018-04-25T20:27:22.117Z,99501
2018-04-25T20:29:52.957Z,99500
2018-04-25T20:32:23.417Z,99510
2018-04-25T20:34:54.050Z,99514
2018-04-25T20:37:24.533Z,99517
2018-04-25T20:39:55.204Z,99516
2018-04-25T20:42:25.746Z,99519
2018-04-25T20:44:56.327Z,99517
2018-04-25T20:47:26.980Z,99520
2018-04-25T20:49:57.430Z,99522
2018-04-25T20:52:27.960Z,99520
2018-04-25T20:54:58.606Z,99525
2018-04-25T20:57:29.326Z,99525
2018-04-25T21:00:00.032Z,99522
2018-04-25T21:02:31.449Z,99520
2018-04-25T21:05:02.003Z,99518
2018-04-25T21:07:32.627Z,99525
2018-04-25T21:10:02.976Z,99523
2018-04-25T21:12:32.818Z,99528
2018-04-25T21:15:03.846Z,99523
2018-04-25T21:17:34.726Z,99530
2018-04-25T21:20:05.012Z,99529
2018-04-25T21:22:35.640Z,99531
2018-04-25T21:25:07.389Z,99525
2018-04-25T21:27:37.690Z,99525
2018-04-25T21:30:08.365Z,99526
2018-04-25T21:32:39.042Z,99524
2018-04-25T21:35:09.528Z,99530
2018-04-25T21:37:39.451Z,99533
2018-04-25T21:40:10.137Z,99527
2018-04-25T21:42:40.199Z,99531
2018-04-25T21:45:10.499Z,99533
2018-04-25T21:47:41.457Z,99541
2018-04-25T21:50:12.318Z,99538
2018-04-25T21:52:43.501Z,99533
2018-04-25T21:55:14.056Z,99539
2018-04-25T21:57:44.558Z,99548
2018-04-25T22:00:15.520Z,99543
2018-04-25T22:02:46.323Z,99545
2018-04-25T22:05:17.010Z,99545
2018-04-25T22:07:47.543Z,99544
2018-04-25T22:10:18.252Z,99549
2018-04-25T22:12:49.225Z,99539
2018-04-25T22:15:20.117Z,99546
2018-04-25T22:17:50.670Z,99543
2018-04-25T22:20:21.260Z,99548
2018-04-25T22:22:52.114Z,99549
2018-04-25T22:25:22.486Z,99543
2018-04-25T22:27:53.012Z,99551
2018-04-25T22:30:23.957Z,99547
2018-04-25T22:32:54.545Z,99540
2018-04-25T22:35:25.686Z,99538
2018-04-25T22:37:56.294Z,99538
2018-04-25T22:40:27.116Z,99532
2018-04-25T22:42:57.393Z,99527
2018-04-25T22:45:28.043Z,99524
2018-04-25T22:47:58.655Z,99526
2018-04-25T22:50:29.565Z,99527
2018-04-25T22:53:00.043Z,99521
2018-04-25T22:55:30.078Z,99517
2018-04-25T22:58:00.591Z,99510
2018-04-25T23:00:31.136Z,99522
2018-04-25T23:03:01.740Z,99512
2018-04-25T23:05:32.385Z,99515
2018-04-25T23:08:03.051Z,99518
2018-04-25T23:10:33.147Z,99519
2018-04-25T23:13:03.275Z,99517
2018-04-25T23:15:33.693Z,99524
2018-04-25T23:18:03.519Z,99519
2018-04-25T23:20:34.528Z,99517
2018-04-25T23:23:04.353Z,99516
2018-04-25T23:25:34.767Z,99511
2018-04-25T23:28:05.117Z,99513
2018-04-25T23:30:35.341Z,99513
2018-04-25T23:33:05.766Z,99513
2018-04-25T23:35:36.285Z,99510
2018-04-25T23:38:06.792Z,99510
2018-04-25T23:40:37.039Z,99509
2018-04-25T23:43:07.534Z,99507
2018-04-25T23:45:38.432Z,99505
2018-04-25T23:48:08.907Z,99512
2018-04-25T23:50:39.365Z,99512
2018-04-25T23:53:09.916Z,99509
2018-04-25T23:55:40.708Z,99510
2018-04-25T23:58:11.762Z,99507
